Time;durP1;ratioP1;P1;durP2;ratioP2;P2;SDS_P1;SDS_P2;PMS_P1;PMS_P2;Temp;Humidity;BMP_temperature;BMP_pressure;BME280_temperature;BME280_humidity;BME280_pressure;Samples;Min_cycle;Max_cycle;Signal;HPM_P1;HPM_P2
2022/05/14 00:00:22;;;;;;;21.65;6.68;;;12.40;44.40;;;;;;5013353;28;20466;-25
2022/05/14 00:02:49;;;;;;;20.25;5.32;;;12.30;99.90;;;;;;5013758;28;20475;-25
2022/05/14 00:05:16;;;;;;;27.73;6.80;;;12.30;95.40;;;;;;5012713;28;20046;-26
2022/05/14 00:07:42;;;;;;;32.95;6.55;;;12.20;99.90;;;;;;5013997;28;20050;-26
2022/05/14 00:10:08;;;;;;;21.65;5.28;;;12.10;99.90;;;;;;5013713;28;20382;-26
2022/05/14 00:15:18;;;;;;;22.85;6.45;;;12.00;99.90;;;;;;5014265;28;20050;-25
2022/05/14 00:17:46;;;;;;;19.30;5.63;;;12.00;99.90;;;;;;5014225;28;20052;-25
2022/05/14 00:20:14;;;;;;;23.50;5.35;;;11.90;99.90;;;;;;5012941;28;20058;-25
2022/05/14 00:22:39;;;;;;;21.85;5.50;;;12.00;99.90;;;;;;5014293;28;20056;-25
2022/05/14 00:25:07;;;;;;;25.17;5.82;;;11.70;99.90;;;;;;5014388;28;20400;-25
2022/05/14 00:27:33;;;;;;;16.95;6.40;;;11.70;99.90;;;;;;5013479;28;20129;-26
2022/05/14 00:29:58;;;;;;;28.30;7.15;;;11.60;99.90;;;;;;5013780;28;20042;-26
2022/05/14 00:32:24;;;;;;;22.13;6.90;;;11.50;99.90;;;;;;5013527;28;20049;-26
2022/05/14 00:34:50;;;;;;;31.92;6.85;;;11.40;1.00;;;;;;5013526;28;20050;-25
2022/05/14 00:37:16;;;;;;;28.98;7.30;;;11.40;1.00;;;;;;5013685;28;20474;-26
2022/05/14 00:39:42;;;;;;;23.80;6.47;;;11.40;1.00;;;;;;5013480;28;20054;-25
2022/05/14 00:42:08;;;;;;;17.48;6.38;;;11.50;1.00;;;;;;5013430;28;20054;-26
2022/05/14 00:44:34;;;;;;;25.90;6.40;;;11.40;1.00;;;;;;5013407;28;20111;-26
2022/05/14 00:47:20;;;;;;;17.27;5.53;;;11.40;22.40;;;;;;5013202;28;20042;-26
2022/05/14 00:49:47;;;;;;;23.63;6.32;;;11.40;99.90;;;;;;5016916;28;20054;-26
2022/05/14 00:52:19;;;;;;;23.55;6.50;;;11.40;94.10;;;;;;5017026;28;20046;-25
2022/05/14 00:55:03;;;;;;;33.05;8.15;;;11.60;97.30;;;;;;5017038;28;20046;-26
2022/05/14 00:57:34;;;;;;;36.40;8.57;;;11.70;99.90;;;;;;5015636;28;20053;-26
2022/05/14 01:00:08;;;;;;;26.48;7.78;;;11.70;99.90;;;;;;5015793;28;20132;-26
2022/05/14 01:02:33;;;;;;;31.38;8.07;;;11.60;99.90;;;;;;5017453;28;20050;-26
2022/05/14 01:05:00;;;;;;;33.75;7.93;;;11.60;99.90;;;;;;5017604;28;20404;-26
2022/05/14 01:07:27;;;;;;;30.73;7.38;;;11.60;99.90;;;;;;5016660;28;20050;-26
2022/05/14 01:10:03;;;;;;;34.38;8.73;;;11.60;99.90;;;;;;5016999;28;20089;-25
2022/05/14 01:12:31;;;;;;;26.35;6.35;;;11.60;99.90;;;;;;5017188;28;20050;-26
2022/05/14 01:15:12;;;;;;;31.17;8.63;;;11.90;99.90;;;;;;5016560;28;20507;-26
2022/05/14 01:17:38;;;;;;;34.92;7.78;;;11.50;99.90;;;;;;5016441;28;20053;-25
2022/05/14 01:20:04;;;;;;;30.35;8.68;;;11.60;99.90;;;;;;5015332;28;20096;-25
2022/05/14 01:23:08;;;;;;;34.10;8.68;;;11.60;99.90;;;;;;5015688;28;20089;-26
2022/05/14 01:26:29;;;;;;;34.05;8.25;;;11.60;99.90;;;;;;5016967;28;20042;-25
2022/05/14 01:29:03;;;;;;;27.60;8.27;;;11.60;99.90;;;;;;5016566;28;20131;-25
2022/05/14 01:31:29;;;;;;;35.40;8.20;;;11.70;99.90;;;;;;5016874;28;20088;-25
2022/05/14 01:33:59;;;;;;;24.67;7.05;;;11.70;99.90;;;;;;5015251;28;20049;-25
2022/05/14 01:36:25;;;;;;;36.45;8.30;;;11.60;99.90;;;;;;5016196;28;20042;-26
2022/05/14 01:38:51;;;;;;;32.40;7.88;;;11.60;1.00;;;;;;5014986;28;20045;-25
2022/05/14 01:41:17;;;;;;;29.13;9.20;;;11.60;1.00;;;;;;5016114;28;20057;-25
2022/05/14 01:43:43;;;;;;;36.75;8.73;;;11.70;99.90;;;;;;5016086;28;20050;-25
2022/05/14 01:46:09;;;;;;;30.45;8.07;;;11.50;1.00;;;;;;5015968;28;20046;-26
2022/05/14 01:48:35;;;;;;;32.92;8.60;;;11.40;1.00;;;;;;5016504;28;20398;-25
2022/05/14 01:51:00;;;;;;;42.08;9.15;;;11.60;1.00;;;;;;5015930;28;20060;-25
2022/05/14 01:53:26;;;;;;;41.67;10.50;;;11.50;1.00;;;;;;5015864;28;20054;-26
2022/05/14 01:55:52;;;;;;;38.90;9.18;;;11.30;1.00;;;;;;5015749;28;20053;-26
2022/05/14 01:58:36;;;;;;;41.15;10.05;;;11.20;1.00;;;;;;5014740;28;20042;-25
2022/05/14 02:01:16;;;;;;;46.67;10.77;;;11.10;1.00;;;;;;5016318;28;20046;-26
2022/05/14 02:03:45;;;;;;;42.03;10.85;;;11.00;1.00;;;;;;5015721;28;20502;-26
2022/05/14 02:06:11;;;;;;;62.45;12.82;;;10.90;1.00;;;;;;5015230;28;20529;-25
2022/05/14 02:08:37;;;;;;;35.45;9.45;;;11.00;1.00;;;;;;5016174;28;20088;-25
2022/05/14 02:11:03;;;;;;;44.70;11.30;;;10.90;1.00;;;;;;5015267;28;20409;-26
2022/05/14 02:13:30;;;;;;;53.80;11.60;;;11.10;1.00;;;;;;5015516;28;20046;-26
2022/05/14 02:15:56;;;;;;;37.78;9.80;;;10.90;1.00;;;;;;5015485;28;20045;-27
2022/05/14 02:18:22;;;;;;;44.70;11.50;;;11.00;1.00;;;;;;5015437;28;20041;-26
2022/05/14 02:20:48;;;;;;;46.45;10.55;;;10.80;1.00;;;;;;5015911;28;20188;-25
2022/05/14 02:23:14;;;;;;;38.70;9.77;;;10.80;1.00;;;;;;5015944;28;20152;-25
2022/05/14 02:25:42;;;;;;;52.97;12.45;;;10.80;1.00;;;;;;5015792;28;20128;-25
2022/05/14 02:28:09;;;;;;;30.63;11.13;;;10.70;1.00;;;;;;5015180;28;20512;-26
2022/05/14 02:30:35;;;;;;;43.50;12.63;;;10.90;1.00;;;;;;5015181;28;20050;-25
2022/05/14 02:33:00;;;;;;;41.17;10.57;;;10.50;1.00;;;;;;5014171;28;20045;-25
2022/05/14 02:35:26;;;;;;;51.63;12.65;;;10.60;10.00;;;;;;5015124;28;20393;-25
2022/05/14 02:37:52;;;;;;;53.78;13.73;;;10.50;24.20;;;;;;5015083;28;20129;-25
2022/05/14 02:40:18;;;;;;;47.70;11.75;;;10.50;30.40;;;;;;5015846;28;20448;-25
2022/05/14 02:42:44;;;;;;;58.25;13.00;;;10.50;48.20;;;;;;5015788;28;20081;-25
2022/05/14 02:45:10;;;;;;;56.67;12.57;;;10.50;69.30;;;;;;5015473;28;20442;-25
2022/05/14 02:47:36;;;;;;;61.90;15.88;;;10.50;91.00;;;;;;5013592;28;20088;-25
2022/05/14 02:50:04;;;;;;;48.22;12.18;;;10.40;95.60;;;;;;5013698;28;20446;-25
2022/05/14 02:52:30;;;;;;;40.20;12.25;;;10.50;99.90;;;;;;5013786;28;20405;-26
2022/05/14 02:54:56;;;;;;;59.00;13.02;;;10.50;99.90;;;;;;5014746;28;20046;-25
2022/05/14 02:57:21;;;;;;;40.58;12.38;;;10.50;99.90;;;;;;5014747;28;20108;-25
2022/05/14 02:59:47;;;;;;;50.17;13.48;;;10.40;99.90;;;;;;5014931;28;20042;-25
2022/05/14 03:02:14;;;;;;;52.72;13.02;;;10.40;99.90;;;;;;5013658;28;20429;-26
2022/05/14 03:04:43;;;;;;;45.85;12.23;;;10.50;99.90;;;;;;5014570;28;20528;-25
2022/05/14 03:07:11;;;;;;;62.03;14.63;;;10.40;99.90;;;;;;5014448;28;20046;-25
2022/05/14 03:09:38;;;;;;;53.15;13.27;;;10.40;99.90;;;;;;5013803;28;20050;-25
2022/05/14 03:12:05;;;;;;;40.95;11.32;;;10.50;99.90;;;;;;5014699;28;20068;-25
2022/05/14 03:14:31;;;;;;;57.58;13.10;;;10.30;99.90;;;;;;5014408;28;20045;-25
2022/05/14 03:16:57;;;;;;;70.15;14.07;;;10.20;99.90;;;;;;5014960;28;20471;-25
2022/05/14 03:19:23;;;;;;;65.60;15.32;;;10.00;99.90;;;;;;5014312;28;20130;-25
2022/05/14 03:21:49;;;;;;;64.75;17.63;;;10.00;99.90;;;;;;5014160;28;20144;-25
2022/05/14 03:24:14;;;;;;;62.60;15.60;;;9.80;99.90;;;;;;5014279;28;20402;-25
2022/05/14 03:26:42;;;;;;;62.63;16.55;;;10.10;99.90;;;;;;5014415;28;20444;-25
2022/05/14 03:29:09;;;;;;;58.45;15.45;;;10.00;99.90;;;;;;5014162;28;20050;-25
2022/05/14 03:31:35;;;;;;;56.42;12.60;;;10.20;99.90;;;;;;5014693;28;20057;-25
2022/05/14 03:34:01;;;;;;;67.90;13.38;;;10.00;99.90;;;;;;5014365;28;20054;-25
2022/05/14 03:36:27;;;;;;;74.03;15.77;;;9.60;99.90;;;;;;5014346;28;20505;-25
2022/05/14 03:38:54;;;;;;;57.55;15.23;;;9.80;99.90;;;;;;5013629;28;20096;-25
2022/05/14 03:41:21;;;;;;;53.67;13.65;;;9.30;99.90;;;;;;5014006;28;20042;-25
2022/05/14 03:43:48;;;;;;;65.85;16.40;;;9.40;99.90;;;;;;5013999;28;20387;-25
2022/05/14 03:46:15;;;;;;;50.88;14.65;;;9.70;99.90;;;;;;5013926;28;20093;-25
2022/05/14 03:48:41;;;;;;;84.18;18.23;;;9.60;99.90;;;;;;4997385;28;20058;-25
2022/05/14 03:51:08;;;;;;;76.63;18.17;;;9.90;99.90;;;;;;5013924;28;20056;-25
2022/05/14 03:53:36;;;;;;;83.30;16.33;;;9.70;99.90;;;;;;5014412;28;20045;-25
2022/05/14 03:56:02;;;;;;;57.88;14.00;;;9.60;99.90;;;;;;5012607;28;20045;-25
2022/05/14 03:58:28;;;;;;;63.78;15.27;;;9.50;99.90;;;;;;5014659;28;20048;-25
2022/05/14 04:00:54;;;;;;;73.75;16.13;;;9.20;99.90;;;;;;5013503;28;20537;-25
2022/05/14 04:03:20;;;;;;;59.00;14.77;;;9.20;99.90;;;;;;5013842;28;20405;-25
2022/05/14 04:05:46;;;;;;;59.25;16.63;;;9.20;99.90;;;;;;5012529;28;20042;-25
2022/05/14 04:08:12;;;;;;;73.57;16.92;;;9.00;99.90;;;;;;5013114;28;20046;-25
2022/05/14 04:10:38;;;;;;;72.05;18.23;;;9.10;99.90;;;;;;4980300;28;20050;-25
2022/05/14 04:13:04;;;;;;;83.63;18.88;;;9.40;99.90;;;;;;5013714;28;20401;-25
2022/05/14 04:15:29;;;;;;;62.03;17.50;;;9.00;99.90;;;;;;4996379;28;20470;-25
2022/05/14 04:17:56;;;;;;;64.22;15.85;;;8.90;99.90;;;;;;5012505;28;20056;-25
2022/05/14 04:20:23;;;;;;;65.45;15.43;;;8.90;99.90;;;;;;5014066;28;20050;-26
2022/05/14 04:22:50;;;;;;;57.92;16.70;;;8.80;99.90;;;;;;5017644;28;20237;-25
2022/05/14 04:25:17;;;;;;;68.70;16.50;;;8.70;99.90;;;;;;5017840;28;20060;-25
2022/05/14 04:27:44;;;;;;;75.80;18.85;;;8.70;99.90;;;;;;5017403;28;20049;-25
2022/05/14 04:30:12;;;;;;;79.75;17.17;;;8.80;99.90;;;;;;5017441;28;20409;-25
2022/05/14 04:32:38;;;;;;;86.85;18.77;;;8.80;99.90;;;;;;5017396;28;20049;-25
2022/05/14 04:35:05;;;;;;;71.60;17.48;;;9.00;99.90;;;;;;5017005;28;20445;-25
2022/05/14 04:37:31;;;;;;;64.45;17.20;;;8.90;99.90;;;;;;5050273;28;20050;-25
2022/05/14 04:39:56;;;;;;;80.90;20.05;;;9.00;99.90;;;;;;5017340;28;20057;-25
2022/05/14 04:42:22;;;;;;;56.70;16.33;;;9.30;99.90;;;;;;5017207;28;20046;-25
2022/05/14 04:44:48;;;;;;;61.42;18.33;;;9.30;99.90;;;;;;5017163;28;20103;-25
2022/05/14 04:47:16;;;;;;;83.40;20.25;;;9.80;99.90;;;;;;5017091;28;20124;-26
2022/05/14 04:49:44;;;;;;;84.55;20.48;;;9.60;99.90;;;;;;5017097;28;20089;-25
2022/05/14 04:52:10;;;;;;;55.95;18.25;;;9.80;99.90;;;;;;5016059;28;20053;-25
2022/05/14 04:54:37;;;;;;;57.53;15.95;;;10.30;99.90;;;;;;5016993;28;20143;-25
2022/05/14 04:57:04;;;;;;;51.22;16.42;;;10.20;99.90;;;;;;5016890;28;20038;-26
2022/05/14 04:59:30;;;;;;;62.75;18.90;;;10.20;99.90;;;;;;5016875;28;20049;-26
2022/05/14 05:04:42;;;;;;;47.83;15.20;;;10.40;99.90;;;;;;5017704;28;20385;-25
2022/05/14 05:07:08;;;;;;;59.42;14.52;;;10.60;99.90;;;;;;5016316;28;20096;-27
2022/05/14 05:09:34;;;;;;;47.08;14.35;;;10.90;99.90;;;;;;5016726;28;20401;-25
2022/05/14 05:11:59;;;;;;;53.33;13.98;;;11.10;99.90;;;;;;5016700;28;20042;-26
2022/05/14 05:14:26;;;;;;;58.42;14.32;;;11.00;99.90;;;;;;5016456;28;20112;-25
2022/05/14 05:16:51;;;;;;;40.80;10.68;;;11.30;99.90;;;;;;5016583;28;20048;-26
2022/05/14 05:19:18;;;;;;;39.15;10.25;;;11.30;99.90;;;;;;5016511;28;20045;-25
2022/05/14 05:21:44;;;;;;;51.15;13.38;;;11.40;99.90;;;;;;5016304;28;20452;-25
2022/05/14 05:24:11;;;;;;;38.55;12.73;;;11.40;99.90;;;;;;5017075;28;20083;-26
2022/05/14 05:26:38;;;;;;;35.20;9.02;;;11.50;99.90;;;;;;5016331;28;20132;-26
2022/05/14 05:29:05;;;;;;;54.92;10.80;;;11.50;99.90;;;;;;5015236;28;20041;-26
2022/05/14 05:31:32;;;;;;;37.55;10.43;;;11.60;99.90;;;;;;5016314;28;20060;-26
2022/05/14 05:33:58;;;;;;;36.40;10.02;;;11.60;99.90;;;;;;5015818;28;20045;-25
2022/05/14 05:36:24;;;;;;;36.78;9.85;;;11.50;99.90;;;;;;5017040;28;20045;-25
2022/05/14 05:38:51;;;;;;;37.13;10.27;;;11.70;99.90;;;;;;5015243;28;20398;-25
2022/05/14 05:41:18;;;;;;;26.65;8.32;;;12.00;99.90;;;;;;5015693;28;20093;-26
2022/05/14 05:43:44;;;;;;;35.65;9.73;;;12.40;1.00;;;;;;5016078;28;20065;-26
2022/05/14 05:46:11;;;;;;;26.42;8.13;;;12.90;99.90;;;;;;4998629;28;20099;-26
2022/05/14 05:48:38;;;;;;;32.63;9.15;;;13.30;83.90;;;;;;5015965;28;20057;-26
2022/05/14 05:51:03;;;;;;;37.05;9.93;;;13.70;1.00;;;;;;5015009;28;20045;-26
2022/05/14 05:58:58;;;;;;;33.08;9.20;;;14.50;4.90;;;;;;5016428;28;20137;-25
2022/05/14 06:01:24;;;;;;;29.25;7.32;;;14.60;1.00;;;;;;5014820;28;20161;-25
2022/05/14 06:03:51;;;;;;;32.95;8.43;;;14.70;1.00;;;;;;5016270;28;20046;-26
2022/05/14 06:06:18;;;;;;;29.80;6.72;;;14.80;99.90;;;;;;5014696;28;20045;-25
2022/05/14 06:08:44;;;;;;;32.15;8.02;;;15.00;99.90;;;;;;5016194;28;20046;-25
2022/05/14 06:11:09;;;;;;;24.88;6.35;;;15.00;99.90;;;;;;5014420;28;20049;-25
2022/05/14 06:13:36;;;;;;;35.65;8.68;;;14.60;99.90;;;;;;5015519;28;20076;-26
2022/05/14 06:16:02;;;;;;;28.27;7.03;;;14.30;99.90;;;;;;5015485;28;20034;-25
2022/05/14 06:18:28;;;;;;;22.00;5.85;;;14.50;99.90;;;;;;5016241;28;20053;-25
2022/05/14 06:20:54;;;;;;;31.20;7.57;;;14.80;99.90;;;;;;5015354;28;20401;-25
2022/05/14 06:23:20;;;;;;;29.42;6.85;;;15.10;99.90;;;;;;5015204;28;20058;-25
2022/05/14 06:25:46;;;;;;;27.42;7.15;;;15.20;99.90;;;;;;5015519;28;20573;-24
2022/05/14 06:28:11;;;;;;;33.58;6.93;;;15.30;99.90;;;;;;5015272;28;20048;-25
2022/05/14 06:30:41;;;;;;;24.75;5.85;;;15.30;59.00;;;;;;5015219;28;20555;-24
2022/05/14 06:33:12;;;;;;;22.48;5.78;;;15.30;72.20;;;;;;5014171;28;20474;-24
2022/05/14 06:35:38;;;;;;;25.05;5.70;;;15.50;45.70;;;;;;4998784;28;20057;-24
2022/05/14 06:38:06;;;;;;;20.35;6.13;;;15.60;1.00;;;;;;5015121;28;20133;-24
2022/05/14 06:40:34;;;;;;;26.55;6.68;;;15.70;1.00;;;;;;4997849;28;20064;-25
2022/05/14 06:43:00;;;;;;;23.30;5.03;;;15.70;1.00;;;;;;5013783;28;20444;-24
2022/05/14 06:45:26;;;;;;;31.83;6.43;;;15.70;1.00;;;;;;5014653;28;20111;-24
2022/05/14 06:47:53;;;;;;;22.65;6.30;;;15.50;1.00;;;;;;5014887;28;20046;-25
2022/05/14 06:50:19;;;;;;;28.55;5.97;;;15.30;1.00;;;;;;5014876;28;20053;-24
2022/05/14 06:52:48;;;;;;;22.77;5.82;;;15.70;1.00;;;;;;5014808;28;20054;-25
2022/05/14 06:55:18;;;;;;;28.23;5.80;;;15.80;1.00;;;;;;5015059;28;20068;-24
2022/05/14 06:57:44;;;;;;;25.05;5.78;;;16.00;1.00;;;;;;5013559;28;20046;-25
2022/05/14 07:00:10;;;;;;;27.25;5.68;;;16.20;1.00;;;;;;5014356;28;20100;-24
2022/05/14 07:02:37;;;;;;;28.92;5.50;;;16.50;99.90;;;;;;5013381;28;20053;-24
2022/05/14 07:07:48;;;;;;;27.25;5.40;;;16.50;99.90;;;;;;5014835;28;20057;-25
2022/05/14 07:10:14;;;;;;;18.73;5.28;;;16.60;99.90;;;;;;5014488;28;20045;-24
2022/05/14 07:12:40;;;;;;;27.20;5.47;;;16.80;99.90;;;;;;5014482;28;20050;-24
2022/05/14 07:15:07;;;;;;;22.05;5.45;;;16.80;99.90;;;;;;5014398;28;20050;-24
2022/05/14 07:17:34;;;;;;;23.17;4.55;;;16.60;99.90;;;;;;5015464;28;20039;-24
2022/05/14 07:20:00;;;;;;;25.10;5.32;;;16.60;99.90;;;;;;5014385;28;20072;-24
2022/05/14 07:22:26;;;;;;;24.02;5.70;;;16.70;99.90;;;;;;5013903;28;20050;-25
2022/05/14 07:24:51;;;;;;;15.98;4.70;;;16.40;99.90;;;;;;5014833;28;20099;-24
2022/05/14 07:27:18;;;;;;;22.65;4.53;;;16.40;99.90;;;;;;5014183;28;20436;-24
2022/05/14 07:29:45;;;;;;;20.65;4.65;;;16.60;99.90;;;;;;5014218;28;20041;-24
2022/05/14 07:32:13;;;;;;;20.88;4.90;;;16.40;99.90;;;;;;5013200;28;20107;-24
2022/05/14 07:34:40;;;;;;;21.83;5.05;;;16.40;99.90;;;;;;5014662;28;20050;-24
2022/05/14 07:37:16;;;;;;;15.57;4.05;;;16.30;99.90;;;;;;5014079;28;20049;-24
2022/05/14 07:40:14;;;;;;;18.98;3.80;;;16.40;99.90;;;;;;5014395;28;20064;-24
2022/05/14 07:42:46;;;;;;;20.65;4.35;;;16.50;99.90;;;;;;5014010;28;20501;-24
2022/05/14 07:45:16;;;;;;;18.15;4.40;;;16.60;99.90;;;;;;5014021;28;20042;-24
2022/05/14 07:47:42;;;;;;;20.98;5.95;;;16.60;99.90;;;;;;5013954;28;20049;-24
2022/05/14 07:50:08;;;;;;;20.63;4.65;;;16.80;99.90;;;;;;5012685;28;20041;-24
2022/05/14 07:52:36;;;;;;;17.92;4.22;;;17.00;99.90;;;;;;5013830;28;20085;-24
2022/05/14 07:55:03;;;;;;;19.73;4.55;;;17.10;99.90;;;;;;5013384;28;20049;-25
2022/05/14 07:57:29;;;;;;;20.05;5.05;;;16.90;99.90;;;;;;5014085;28;20124;-24
2022/05/14 07:59:54;;;;;;;20.58;5.22;;;17.30;99.90;;;;;;5012274;28;20188;-24
2022/05/14 08:02:31;;;;;;;14.93;3.67;;;17.10;99.90;;;;;;5013740;28;20057;-24
2022/05/14 08:05:04;;;;;;;21.23;5.10;;;17.00;99.90;;;;;;5014395;28;20147;-24
2022/05/14 08:07:31;;;;;;;15.60;4.13;;;17.20;99.90;;;;;;5014544;28;20038;-24
2022/05/14 08:09:58;;;;;;;22.77;5.85;;;17.50;99.90;;;;;;5013695;28;20477;-24
2022/05/14 08:12:25;;;;;;;19.35;4.70;;;17.60;99.90;;;;;;5012530;28;20042;-25
2022/05/14 08:14:51;;;;;;;24.73;4.95;;;18.00;99.90;;;;;;5013652;28;20053;-25
2022/05/14 08:17:16;;;;;;;16.17;4.43;;;18.00;99.90;;;;;;5014169;28;20034;-25
2022/05/14 08:19:42;;;;;;;25.35;6.30;;;17.90;99.90;;;;;;5013673;28;20069;-25
2022/05/14 08:24:53;;;;;;;16.73;4.65;;;18.10;49.40;;;;;;5013933;28;20125;-24
2022/05/14 08:27:19;;;;;;;17.55;4.47;;;18.30;1.00;;;;;;5013507;28;20042;-25
2022/05/14 08:29:47;;;;;;;18.67;4.43;;;18.30;1.00;;;;;;5014371;28;20041;-25
2022/05/14 08:32:14;;;;;;;21.73;5.55;;;18.20;1.00;;;;;;5013494;28;20049;-25
2022/05/14 08:34:40;;;;;;;21.13;4.43;;;18.20;1.00;;;;;;5013496;28;20046;-25
2022/05/14 08:37:06;;;;;;;30.48;8.27;;;18.10;1.00;;;;;;5014076;28;20050;-25
2022/05/14 08:39:32;;;;;;;15.85;4.78;;;18.10;16.60;;;;;;5013988;28;20050;-25
2022/05/14 08:42:00;;;;;;;24.10;5.85;;;18.10;8.60;;;;;;5012286;28;20068;-25
2022/05/14 08:44:34;;;;;;;14.85;4.28;;;18.30;36.00;;;;;;5013658;28;20505;-25
2022/05/14 08:47:06;;;;;;;19.15;5.10;;;18.70;1.00;;;;;;5013378;28;20046;-25
2022/05/14 08:49:42;;;;;;;22.23;4.53;;;19.10;1.00;;;;;;5013457;28;20100;-25
2022/05/14 08:52:18;;;;;;;20.83;4.63;;;19.10;1.00;;;;;;5013360;28;20046;-25
2022/05/14 08:54:43;;;;;;;20.13;4.90;;;19.30;1.00;;;;;;5013679;28;20042;-25
2022/05/14 08:57:23;;;;;;;31.38;7.85;;;19.20;1.00;;;;;;5013428;28;20133;-26
2022/05/14 08:59:55;;;;;;;18.65;5.13;;;18.90;1.00;;;;;;5013488;28;20486;-26
2022/05/14 09:02:42;;;;;;;22.77;4.68;;;19.20;1.00;;;;;;5012155;28;20038;-25
2022/05/14 09:05:10;;;;;;;18.83;5.13;;;19.10;1.00;;;;;;5012810;28;20445;-25
2022/05/14 09:07:36;;;;;;;20.10;4.30;;;18.70;1.00;;;;;;5012667;28;20050;-25
2022/05/14 09:10:08;;;;;;;20.65;4.22;;;18.30;1.00;;;;;;5015507;28;20049;-25
2022/05/14 09:12:36;;;;;;;18.33;5.22;;;18.70;1.00;;;;;;5017597;28;20081;-26
2022/05/14 09:15:11;;;;;;;24.20;6.07;;;19.10;1.00;;;;;;5016444;28;20465;-25
2022/05/14 09:17:37;;;;;;;21.52;4.95;;;20.10;1.00;;;;;;5016102;28;20056;-26
2022/05/14 09:20:03;;;;;;;21.80;4.05;;;20.30;1.00;;;;;;4999285;28;20053;-26
2022/05/14 09:22:45;;;;;;;16.35;4.18;;;19.60;1.00;;;;;;5016711;28;20096;-26
2022/05/14 09:25:31;;;;;;;15.98;5.13;;;18.90;1.00;;;;;;5015830;28;20041;-25
2022/05/14 09:28:05;;;;;;;21.17;5.82;;;18.40;1.00;;;;;;5017032;28;20104;-25
2022/05/14 09:30:52;;;;;;;28.60;5.45;;;18.30;1.00;;;;;;5017257;28;20390;-25
2022/05/14 09:33:27;;;;;;;20.20;5.28;;;19.10;1.00;;;;;;5016358;28;20133;-26
2022/05/14 09:35:58;;;;;;;17.00;5.15;;;19.80;1.00;;;;;;5017146;28;20108;-25
2022/05/14 09:38:25;;;;;;;20.20;4.72;;;19.60;1.00;;;;;;5016264;28;20417;-25
2022/05/14 09:40:52;;;;;;;21.85;5.35;;;19.10;1.00;;;;;;5015086;28;20052;-26
2022/05/14 09:43:18;;;;;;;19.60;4.93;;;18.70;1.00;;;;;;5016136;28;20053;-25
2022/05/14 09:46:02;;;;;;;24.23;4.72;;;18.30;1.00;;;;;;5014908;28;20045;-25
2022/05/14 09:48:46;;;;;;;18.42;5.00;;;18.00;7.30;;;;;;5016690;28;20545;-25
2022/05/14 09:51:12;;;;;;;22.77;6.03;;;18.90;1.00;;;;;;5016080;28;20053;-25
2022/05/14 09:53:43;;;;;;;21.60;5.07;;;19.60;1.00;;;;;;5015948;28;20107;-25
2022/05/14 09:56:33;;;;;;;23.23;5.20;;;19.30;1.00;;;;;;5014913;28;20111;-26
2022/05/14 09:59:43;;;;;;;21.08;5.65;;;19.50;1.00;;;;;;5015901;28;20045;-26
2022/05/14 10:02:35;;;;;;;22.73;5.25;;;20.30;1.00;;;;;;5015821;28;20054;-26
2022/05/14 10:05:19;;;;;;;32.35;6.20;;;19.90;99.90;;;;;;5022342;28;20050;-26
2022/05/14 10:07:47;;;;;;;23.40;5.28;;;19.40;1.00;;;;;;5016142;28;20046;-25
2022/05/14 10:10:31;;;;;;;22.27;5.65;;;18.70;1.00;;;;;;5015682;28;20133;-25
2022/05/14 10:13:35;;;;;;;17.10;5.25;;;18.60;1.00;;;;;;5015890;28;20092;-26
2022/05/14 10:16:07;;;;;;;19.52;4.68;;;19.50;1.00;;;;;;5015516;28;20037;-26
2022/05/14 10:19:09;;;;;;;25.25;6.00;;;20.50;1.00;;;;;;5015288;28;20046;-26
2022/05/14 10:22:01;;;;;;;23.52;5.53;;;20.50;99.90;;;;;;5015451;28;20050;-26
2022/05/14 10:27:53;;;;;;;17.75;4.30;;;19.60;1.00;;;;;;5015246;28;20046;-26
2022/05/14 10:30:25;;;;;;;20.60;5.32;;;20.50;1.00;;;;;;5015296;28;20046;-26
2022/05/14 10:33:09;;;;;;;22.92;4.95;;;20.70;99.90;;;;;;4997991;28;20080;-27
2022/05/14 10:36:05;;;;;;;16.40;4.47;;;20.90;99.90;;;;;;5015222;28;20085;-26
2022/05/14 10:39:00;;;;;;;16.75;3.85;;;20.20;99.90;;;;;;4997586;28;20089;-26
2022/05/14 10:42:15;;;;;;;17.25;3.85;;;20.10;99.90;;;;;;5014925;28;20599;-26
2022/05/14 10:44:56;;;;;;;20.73;5.75;;;20.10;1.00;;;;;;5022343;28;20144;-25
2022/05/14 10:47:23;;;;;;;23.90;5.53;;;20.20;99.90;;;;;;5015514;28;20042;-26
2022/05/14 10:49:53;;;;;;;25.08;6.25;;;20.30;99.90;;;;;;5013771;28;20046;-26
2022/05/14 10:52:19;;;;;;;20.88;5.80;;;20.60;99.90;;;;;;5014720;28;20050;-25
2022/05/14 10:54:46;;;;;;;20.67;5.68;;;20.90;99.90;;;;;;5013636;28;20064;-26
2022/05/14 10:57:15;;;;;;;19.17;4.95;;;20.90;99.90;;;;;;5014696;28;20056;-26
2022/05/14 10:59:56;;;;;;;22.15;4.88;;;20.60;99.90;;;;;;5014591;28;20057;-26
2022/05/14 11:02:32;;;;;;;19.85;5.30;;;19.90;99.90;;;;;;5015391;28;20050;-26
2022/05/14 11:04:59;;;;;;;27.48;6.53;;;19.20;1.00;;;;;;5014472;28;20128;-25
2022/05/14 11:07:33;;;;;;;24.88;5.93;;;19.20;1.00;;;;;;5014406;28;20049;-25
2022/05/14 11:10:16;;;;;;;18.33;5.32;;;19.30;99.90;;;;;;5015242;28;20103;-26
2022/05/14 11:12:42;;;;;;;21.65;5.50;;;19.10;1.00;;;;;;5014714;28;20048;-26
2022/05/14 11:15:39;;;;;;;25.33;5.72;;;19.40;1.00;;;;;;5014591;28;20184;-26
2022/05/14 11:18:14;;;;;;;18.48;5.63;;;19.80;99.90;;;;;;5018254;28;20402;-26
2022/05/14 11:20:53;;;;;;;25.75;6.57;;;20.60;1.00;;;;;;5014818;28;20092;-26
2022/05/14 11:23:19;;;;;;;23.33;5.35;;;20.20;99.90;;;;;;5015373;28;20053;-25
2022/05/14 11:25:45;;;;;;;26.00;5.75;;;20.20;1.00;;;;;;5014383;28;20054;-26
2022/05/14 11:28:17;;;;;;;25.05;6.57;;;20.00;1.00;;;;;;5014168;28;20500;-26
2022/05/14 11:30:49;;;;;;;22.08;4.63;;;20.50;99.90;;;;;;5013534;28;20556;-26
2022/05/14 11:33:26;;;;;;;22.92;6.07;;;20.80;99.90;;;;;;5014658;28;20405;-26
2022/05/14 11:36:18;;;;;;;23.83;6.18;;;21.10;99.90;;;;;;5014666;28;20469;-26
2022/05/14 11:38:50;;;;;;;24.50;5.57;;;20.70;99.90;;;;;;5014042;28;20172;-25
2022/05/14 11:41:31;;;;;;;23.83;5.15;;;20.30;99.90;;;;;;5014324;28;20050;-25
2022/05/14 11:43:57;;;;;;;23.80;5.13;;;20.20;99.90;;;;;;5014477;28;20050;-26
2022/05/14 11:46:28;;;;;;;22.15;5.40;;;20.40;99.90;;;;;;5014115;28;20053;-27
2022/05/14 11:49:06;;;;;;;21.00;4.57;;;21.00;99.90;;;;;;5014396;28;20056;-27
2022/05/14 11:51:32;;;;;;;22.17;4.78;;;21.80;99.90;;;;;;5012936;28;20045;-25
2022/05/14 11:54:18;;;;;;;24.08;5.20;;;21.80;99.90;;;;;;5014100;28;20057;-26
2022/05/14 11:57:19;;;;;;;20.85;5.10;;;22.00;99.90;;;;;;5022834;28;20117;-25
2022/05/14 11:59:49;;;;;;;22.35;5.75;;;21.70;99.90;;;;;;5013625;28;20117;-26
2022/05/14 12:02:25;;;;;;;15.98;4.50;;;21.50;99.90;;;;;;5012808;28;20389;-25
2022/05/14 12:04:56;;;;;;;20.05;5.10;;;21.00;99.90;;;;;;5013745;28;20100;-26
2022/05/14 12:07:44;;;;;;;23.67;5.47;;;21.30;99.90;;;;;;5013640;28;20038;-27
2022/05/14 12:10:31;;;;;;;25.20;5.55;;;20.80;99.90;;;;;;5013949;28;20050;-26
2022/05/14 12:13:16;;;;;;;22.85;6.63;;;20.50;99.90;;;;;;5014456;28;20068;-26
2022/05/14 12:15:47;;;;;;;32.50;6.57;;;20.90;99.90;;;;;;5013898;28;20512;-25
2022/05/14 12:18:14;;;;;;;27.17;5.53;;;20.30;99.90;;;;;;5014087;28;20050;-26
2022/05/14 12:20:43;;;;;;;31.40;6.00;;;19.90;99.90;;;;;;5014122;28;20046;-26
2022/05/14 12:23:17;;;;;;;27.67;5.68;;;19.70;99.90;;;;;;5014196;28;20541;-26
2022/05/14 12:25:45;;;;;;;24.13;5.95;;;20.20;99.90;;;;;;5014307;28;20053;-26
2022/05/14 12:28:32;;;;;;;21.27;5.38;;;20.20;99.90;;;;;;5013466;28;20050;-26
2022/05/14 12:34:12;;;;;;;27.65;5.60;;;20.00;99.90;;;;;;5013264;28;20072;-25
2022/05/14 12:36:53;;;;;;;28.17;6.65;;;19.70;99.90;;;;;;5045067;28;20068;-26
2022/05/14 12:39:27;;;;;;;24.02;5.43;;;19.90;99.90;;;;;;5013404;28;20050;-26
2022/05/14 12:41:59;;;;;;;23.42;5.95;;;20.50;99.90;;;;;;5015194;28;20068;-26
2022/05/14 12:44:32;;;;;;;22.15;5.65;;;20.80;99.90;;;;;;5015961;28;20046;-26
2022/05/14 12:47:01;;;;;;;23.35;5.53;;;20.60;99.90;;;;;;5015949;28;20034;-25
2022/05/14 12:49:30;;;;;;;26.73;6.15;;;20.80;99.90;;;;;;5015847;28;20054;-26
2022/05/14 12:52:11;;;;;;;23.63;4.68;;;20.90;99.90;;;;;;5016274;28;20046;-27
2022/05/14 12:54:47;;;;;;;20.30;5.78;;;20.60;99.90;;;;;;5016055;28;20089;-25
2022/05/14 12:57:13;;;;;;;22.17;5.65;;;20.10;99.90;;;;;;5016869;28;20046;-26
2022/05/14 12:59:39;;;;;;;20.52;5.25;;;19.80;99.90;;;;;;5017086;28;20052;-26
2022/05/14 13:02:33;;;;;;;23.13;6.00;;;20.00;99.90;;;;;;5016839;28;20132;-25
2022/05/14 13:04:59;;;;;;;24.48;5.57;;;20.20;99.90;;;;;;5017036;28;20112;-26
2022/05/14 13:07:25;;;;;;;23.75;5.78;;;19.70;99.90;;;;;;5016685;28;20489;-26
2022/05/14 13:09:52;;;;;;;21.05;5.32;;;19.40;99.90;;;;;;5016897;28;20050;-25
2022/05/14 13:12:21;;;;;;;23.40;5.10;;;19.20;99.90;;;;;;5016576;28;20052;-25
2022/05/14 13:14:52;;;;;;;22.20;6.35;;;19.50;1.00;;;;;;5017084;28;20081;-26
2022/05/14 13:17:18;;;;;;;22.38;5.80;;;20.10;99.90;;;;;;5016550;28;20037;-26